Agena — LXHI — position and weather

sailwx.info

Track history (hours):
 
Tides and Currents Weather Stations Pressure Air Temp Water Temp Dewpoint Dewpoint Depression Visibility Wind Speed Wind Dir Waves Ship Positions

Agena

Last reported at 2018-Feb-12 18:58 UTC. Time now 2018-Feb-23 16:08 UTC.
Position N 11°10' W 074°53'.
Warning: this ship's position is 10 days out of date.

Length 184 m; draft 7.2 m.

Type: Ship. MMSI: 253356000.

Date/timePositionNaut miles runAvg speedWind from/ knotsBaromVisibWave heightAir tempDewpointWater temp
2018-Feb-12 18:58N 11°10' W 074°53'4 8.4
2018-Feb-12 18:30N 11°07' W 074°52'5 0.1
2018-Feb-10 16:49N 11°02' W 074°49'0 0.9
2018-Feb-10 16:30N 11°02' W 074°49'4 7.6
2018-Feb-10 16:00N 11°06' W 074°51'2 4.3
2018-Feb-10 15:30N 11°06' W 074°53'1 2.3
2018-Feb-10 15:00N 11°06' W 074°54'0 0.3
2018-Feb-10 14:27N 11°06' W 074°54'0 0.0
2018-Feb-10 13:57N 11°06' W 074°54'0 0.0
2018-Feb-10 13:30N 11°06' W 074°54'0 0.0
2018-Feb-10 13:00N 11°06' W 074°54'0 0.0
2018-Feb-10 12:30N 11°06' W 074°54'8 0.3
2018-Feb-09 12:30N 11°12' W 074°50'  
Track history (hours):
 
Tides and Currents Weather Stations Pressure Air Temp Water Temp Dewpoint Dewpoint Depression Visibility Wind Speed Wind Dir Waves Ship Positions

Agena

Last reported at 2018-Feb-12 18:58 UTC. Time now 2018-Feb-23 16:08 UTC.
Position N 11°10' W 074°53'.
Warning: this ship's position is 10 days out of date.

Length 184 m; draft 7.2 m.

Type: Ship. MMSI: 253356000.

Date/timePositionNaut miles runAvg speedWind from/ knotsBaromVisibWave heightAir tempDewpointWater temp
2018-Feb-12 18:58N 11°10' W 074°53'4 8.4
2018-Feb-12 18:30N 11°07' W 074°52'5 0.1
2018-Feb-10 16:49N 11°02' W 074°49'0 0.9
2018-Feb-10 16:30N 11°02' W 074°49'4 7.6
2018-Feb-10 16:00N 11°06' W 074°51'2 4.3
2018-Feb-10 15:30N 11°06' W 074°53'1 2.3
2018-Feb-10 15:00N 11°06' W 074°54'0 0.3
2018-Feb-10 14:27N 11°06' W 074°54'0 0.0
2018-Feb-10 13:57N 11°06' W 074°54'0 0.0
2018-Feb-10 13:30N 11°06' W 074°54'0 0.0
2018-Feb-10 13:00N 11°06' W 074°54'0 0.0
2018-Feb-10 12:30N 11°06' W 074°54'8 0.3
2018-Feb-09 12:30N 11°12' W 074°50'  

Dump ship's entire track history